Time;durP1;ratioP1;P1;durP2;ratioP2;P2;SDS_P1;SDS_P2;PMS_P1;PMS_P2;Temp;Humidity;BMP_temperature;BMP_pressure;BME280_temperature;BME280_humidity;BME280_pressure;Samples;Min_cycle;Max_cycle;Signal;HPM_P1;HPM_P2
2023/05/10 00:01:07;;;;;;;17.58;14.68;;;14.40;95.90;;;;;;5056430;28;20028;-49
2023/05/10 00:03:34;;;;;;;17.00;14.38;;;14.40;95.90;;;;;;5055997;28;20103;-56
2023/05/10 00:05:59;;;;;;;18.25;14.68;;;14.40;95.90;;;;;;5056313;28;20052;-53
2023/05/10 00:08:25;;;;;;;17.90;14.82;;;14.40;95.90;;;;;;5038348;28;20029;-56
2023/05/10 00:10:55;;;;;;;16.95;15.20;;;14.40;95.90;;;;;;5038464;28;20064;-58
2023/05/10 00:13:22;;;;;;;15.70;14.10;;;14.40;95.90;;;;;;5056145;28;20028;-52
2023/05/10 00:15:49;;;;;;;16.50;14.90;;;14.40;95.90;;;;;;5055829;28;20033;-51
2023/05/10 00:18:16;;;;;;;16.08;14.25;;;14.40;95.90;;;;;;5056115;28;20033;-54
2023/05/10 00:20:45;;;;;;;17.73;14.77;;;14.40;95.90;;;;;;5055863;28;20040;-53
2023/05/10 00:23:12;;;;;;;14.95;13.45;;;14.40;95.90;;;;;;5038380;28;20366;-54
2023/05/10 00:25:39;;;;;;;15.57;14.07;;;14.40;95.90;;;;;;5055996;28;20063;-56
2023/05/10 00:28:06;;;;;;;14.90;13.40;;;14.30;95.90;;;;;;5055699;28;20064;-58
2023/05/10 00:30:32;;;;;;;14.55;13.07;;;14.30;95.90;;;;;;5054944;28;20060;-56
2023/05/10 00:32:59;;;;;;;17.27;15.48;;;14.30;95.90;;;;;;5055295;28;20025;-55
2023/05/10 00:35:25;;;;;;;17.17;14.82;;;14.30;95.90;;;;;;5038270;28;20078;-49
2023/05/10 00:37:51;;;;;;;16.20;14.45;;;14.30;95.90;;;;;;5067499;28;20354;-48
2023/05/10 00:40:18;;;;;;;16.13;13.35;;;14.30;95.90;;;;;;5058177;28;20033;-48
2023/05/10 00:42:45;;;;;;;16.10;14.40;;;14.30;95.90;;;;;;5071341;28;20021;-47
2023/05/10 00:45:14;;;;;;;19.73;15.77;;;14.30;95.90;;;;;;5055630;28;20025;-47
2023/05/10 00:47:44;;;;;;;14.77;13.27;;;14.30;95.90;;;;;;5055634;28;20044;-46
2023/05/10 00:50:12;;;;;;;15.23;13.70;;;14.30;95.90;;;;;;5055407;28;20036;-46
2023/05/10 00:52:39;;;;;;;15.05;13.57;;;14.30;95.90;;;;;;5055166;28;20039;-46
2023/05/10 00:55:07;;;;;;;16.08;14.40;;;14.30;95.90;;;;;;5055373;28;20044;-49
2023/05/10 00:57:34;;;;;;;15.88;13.73;;;14.20;95.90;;;;;;5055039;28;20033;-49
2023/05/10 01:00:02;;;;;;;15.55;13.95;;;14.20;95.90;;;;;;5055149;28;20367;-50
2023/05/10 01:02:31;;;;;;;19.27;14.50;;;14.20;95.90;;;;;;5037650;28;20021;-53
2023/05/10 01:05:01;;;;;;;16.65;14.85;;;14.20;95.90;;;;;;5054946;28;20367;-54
2023/05/10 01:07:28;;;;;;;16.20;14.48;;;14.20;95.90;;;;;;5037566;28;20426;-55
2023/05/10 01:09:56;;;;;;;17.52;14.25;;;14.20;95.90;;;;;;5062807;28;20091;-50
2023/05/10 01:12:23;;;;;;;15.80;14.25;;;14.20;95.90;;;;;;5075069;28;20063;-54
2023/05/10 01:14:52;;;;;;;20.30;14.70;;;14.20;95.90;;;;;;5060734;28;20039;-52
2023/05/10 01:17:19;;;;;;;17.10;14.82;;;14.20;95.90;;;;;;5054753;28;20025;-56
2023/05/10 01:19:46;;;;;;;21.33;17.38;;;14.20;95.90;;;;;;5055021;28;20032;-57
2023/05/10 01:22:50;;;;;;;16.00;14.43;;;14.20;95.90;;;;;;5068987;28;20024;-57
2023/05/10 01:25:44;;;;;;;16.92;15.13;;;14.20;95.90;;;;;;5066336;28;20017;-54
2023/05/10 01:28:31;;;;;;;16.73;15.00;;;14.20;95.90;;;;;;5054577;28;20043;-59
2023/05/10 01:31:24;;;;;;;16.00;14.18;;;14.20;96.00;;;;;;5057581;28;20075;-57
2023/05/10 01:34:39;;;;;;;18.20;13.75;;;14.20;96.00;;;;;;5074698;28;20036;-58
2023/05/10 01:37:15;;;;;;;15.13;12.73;;;14.20;96.00;;;;;;5053096;28;20120;-56
2023/05/10 01:40:06;;;;;;;17.58;14.20;;;14.10;95.90;;;;;;5053108;28;20100;-57
2023/05/10 01:42:46;;;;;;;15.95;14.25;;;14.10;95.90;;;;;;5036642;28;20025;-56
2023/05/10 01:45:20;;;;;;;15.38;13.88;;;14.10;95.90;;;;;;5054349;28;20021;-56
2023/05/10 01:48:02;;;;;;;14.48;13.07;;;14.10;96.00;;;;;;5053214;28;20035;-58
2023/05/10 01:50:30;;;;;;;14.77;13.27;;;14.10;96.00;;;;;;5037574;28;20103;-58
2023/05/10 01:53:00;;;;;;;15.65;13.20;;;14.10;96.00;;;;;;5054290;28;20032;-57
2023/05/10 01:55:30;;;;;;;14.75;13.23;;;14.10;96.00;;;;;;5053854;28;20116;-58
2023/05/10 01:58:09;;;;;;;17.90;14.25;;;14.10;96.00;;;;;;5053707;28;20036;-59
2023/05/10 02:00:42;;;;;;;15.43;13.50;;;14.10;96.00;;;;;;5036209;28;20034;-56
2023/05/10 02:03:11;;;;;;;13.95;12.55;;;14.10;96.00;;;;;;5053869;28;20048;-59
2023/05/10 02:05:40;;;;;;;14.32;12.77;;;14.10;96.00;;;;;;5036589;28;20036;-57
2023/05/10 02:08:10;;;;;;;15.38;13.85;;;14.10;96.00;;;;;;5053967;28;20040;-58
2023/05/10 02:10:39;;;;;;;16.02;13.35;;;14.10;96.00;;;;;;5053574;28;20195;-59
2023/05/10 02:13:08;;;;;;;14.80;13.20;;;14.10;96.00;;;;;;5054751;28;20378;-56
2023/05/10 02:15:36;;;;;;;16.30;14.60;;;14.10;96.00;;;;;;5073973;28;20025;-59
2023/05/10 02:18:05;;;;;;;16.98;13.70;;;14.10;96.00;;;;;;5055968;28;20032;-58
2023/05/10 02:20:37;;;;;;;18.98;15.00;;;14.10;96.00;;;;;;5073844;28;20082;-55
2023/05/10 02:23:05;;;;;;;20.98;18.00;;;14.00;96.00;;;;;;5067473;28;20024;-56
2023/05/10 02:25:32;;;;;;;21.42;17.55;;;14.10;96.00;;;;;;5036323;28;20044;-54
2023/05/10 02:28:04;;;;;;;19.30;17.13;;;14.00;96.00;;;;;;5053445;28;20468;-55
2023/05/10 02:30:33;;;;;;;21.10;18.10;;;14.10;96.00;;;;;;5053335;28;20043;-56
2023/05/10 02:33:03;;;;;;;19.63;17.63;;;14.10;96.00;;;;;;5053323;28;20036;-58
2023/05/10 02:35:30;;;;;;;21.13;18.90;;;14.10;96.10;;;;;;5053588;28;20116;-56
2023/05/10 02:37:58;;;;;;;22.40;19.98;;;14.00;96.00;;;;;;5053183;28;20830;-57
2023/05/10 02:40:26;;;;;;;20.70;18.50;;;14.10;96.10;;;;;;5053161;28;20056;-55
2023/05/10 02:42:56;;;;;;;23.58;20.17;;;14.10;96.10;;;;;;5053674;28;20017;-53
2023/05/10 02:45:24;;;;;;;;;;;14.00;96.10;;;;;;5054299;28;20025;-57
2023/05/10 02:47:52;;;;;;;19.88;16.85;;;14.10;96.10;;;;;;5053281;28;19912;-53
2023/05/10 02:50:19;;;;;;;19.23;16.67;;;14.10;96.10;;;;;;5051964;28;20031;-52
2023/05/10 02:52:56;;;;;;;20.25;16.52;;;14.10;96.10;;;;;;5035890;28;20041;-59
2023/05/10 02:55:32;;;;;;;18.60;16.05;;;14.10;96.10;;;;;;5053066;28;20501;-59
2023/05/10 02:58:00;;;;;;;19.75;17.52;;;14.00;96.00;;;;;;5035516;28;20443;-59
2023/05/10 03:00:28;;;;;;;20.23;18.05;;;14.00;96.00;;;;;;5052763;28;20029;-60
2023/05/10 03:02:55;;;;;;;20.13;17.80;;;14.00;96.10;;;;;;5053337;28;20083;-58
2023/05/10 03:05:21;;;;;;;18.50;15.95;;;14.00;96.10;;;;;;5035227;28;20051;-56
2023/05/10 03:07:48;;;;;;;17.02;15.32;;;14.00;96.10;;;;;;5052971;28;20028;-55
2023/05/10 03:10:16;;;;;;;16.00;14.15;;;14.00;96.00;;;;;;5052692;28;20056;-55
2023/05/10 03:13:06;;;;;;;16.13;13.77;;;14.00;96.10;;;;;;5035523;28;20029;-51
2023/05/10 03:15:50;;;;;;;;;;;14.00;96.10;;;;;;5053321;28;20024;-54
2023/05/10 03:18:22;;;;;;;16.95;12.52;;;14.00;96.10;;;;;;5052753;28;20361;-56
2023/05/10 03:20:54;;;;;;;13.90;12.55;;;14.00;96.00;;;;;;5052995;28;20036;-58
2023/05/10 03:23:33;;;;;;;12.65;10.60;;;14.00;96.10;;;;;;5035407;28;20028;-60
2023/05/10 03:26:02;;;;;;;11.27;9.45;;;14.00;96.10;;;;;;5052548;28;20039;-60
2023/05/10 03:28:30;;;;;;;11.80;9.30;;;14.00;96.10;;;;;;5053033;28;20076;-57
2023/05/10 03:30:56;;;;;;;10.90;9.75;;;14.00;96.10;;;;;;5051558;28;20032;-58
2023/05/10 03:33:22;;;;;;;11.13;9.13;;;14.00;96.10;;;;;;5052820;28;20021;-59
2023/05/10 03:35:50;;;;;;;13.85;10.27;;;13.90;96.00;;;;;;5052705;28;20045;-59
2023/05/10 03:38:17;;;;;;;10.40;9.23;;;13.90;96.00;;;;;;5052648;28;20032;-59
2023/05/10 03:40:44;;;;;;;12.88;10.38;;;13.90;96.10;;;;;;5052561;28;20036;-59
2023/05/10 03:43:13;;;;;;;9.70;8.48;;;13.90;96.00;;;;;;5052575;28;20036;-57
2023/05/10 03:45:40;;;;;;;8.48;7.68;;;13.90;96.00;;;;;;5052673;28;20025;-57
2023/05/10 03:48:07;;;;;;;10.02;9.02;;;13.90;96.10;;;;;;5052215;28;20102;-60
2023/05/10 03:50:38;;;;;;;8.57;7.68;;;13.90;96.10;;;;;;5051997;28;20021;-59
2023/05/10 03:53:04;;;;;;;9.15;7.55;;;13.90;96.10;;;;;;5052079;28;20032;-57
2023/05/10 03:55:34;;;;;;;7.72;6.90;;;13.90;96.10;;;;;;5052249;28;20040;-60
2023/05/10 03:58:01;;;;;;;9.05;7.28;;;13.90;96.10;;;;;;5052130;28;20029;-59
2023/05/10 04:00:30;;;;;;;8.40;7.22;;;13.90;96.00;;;;;;5034422;28;20036;-59
2023/05/10 04:02:56;;;;;;;9.15;8.25;;;13.90;96.10;;;;;;5052940;28;20037;-59
2023/05/10 04:05:23;;;;;;;9.07;7.40;;;13.90;96.10;;;;;;5065462;28;20033;-59
2023/05/10 04:07:49;;;;;;;9.93;8.52;;;13.90;96.10;;;;;;5072755;28;20032;-58
2023/05/10 04:10:19;;;;;;;10.40;9.02;;;13.90;96.10;;;;;;5072478;28;20393;-56
2023/05/10 04:12:45;;;;;;;9.25;8.27;;;13.90;96.10;;;;;;5064471;28;20040;-55
2023/05/10 04:15:15;;;;;;;10.50;8.32;;;13.90;96.10;;;;;;5056207;28;20029;-55
2023/05/10 04:17:44;;;;;;;12.57;9.05;;;13.90;96.10;;;;;;5056060;28;20037;-58
2023/05/10 04:20:11;;;;;;;;;;;13.90;96.10;;;;;;5056016;28;20331;-58
2023/05/10 04:22:41;;;;;;;12.68;8.65;;;13.90;96.10;;;;;;5055500;28;20002;-56
2023/05/10 04:25:08;;;;;;;9.93;8.02;;;13.90;96.10;;;;;;5055769;28;20465;-58
2023/05/10 04:27:35;;;;;;;10.10;8.45;;;13.90;96.10;;;;;;5038210;28;20095;-55
2023/05/10 04:30:06;;;;;;;8.93;8.00;;;13.90;96.10;;;;;;5055698;28;20063;-57
2023/05/10 04:32:33;;;;;;;10.18;8.00;;;13.90;96.10;;;;;;5038066;28;20032;-57
2023/05/10 04:35:02;;;;;;;11.05;7.90;;;13.90;96.10;;;;;;5055917;28;20052;-58
2023/05/10 04:37:28;;;;;;;9.73;8.10;;;13.90;96.10;;;;;;5055776;28;20395;-58
2023/05/10 04:39:56;;;;;;;14.75;9.07;;;13.90;96.10;;;;;;5055370;28;20090;-59
2023/05/10 04:42:23;;;;;;;13.02;10.40;;;13.90;96.10;;;;;;5047534;28;20453;-58
2023/05/10 04:44:50;;;;;;;14.38;10.68;;;13.90;96.00;;;;;;5074797;28;20028;-56
2023/05/10 04:47:17;;;;;;;12.00;9.00;;;13.90;96.00;;;;;;5075604;28;20032;-58
2023/05/10 04:49:42;;;;;;;14.40;10.70;;;13.90;96.00;;;;;;5069495;28;20048;-58
2023/05/10 04:52:09;;;;;;;11.23;9.13;;;13.90;96.00;;;;;;5055379;28;20381;-57
2023/05/10 04:54:36;;;;;;;15.05;11.75;;;13.90;96.00;;;;;;5055324;28;20029;-56
2023/05/10 04:57:03;;;;;;;12.38;9.48;;;13.90;96.00;;;;;;5071915;28;20575;-58
2023/05/10 04:59:31;;;;;;;13.60;10.38;;;13.90;96.10;;;;;;5075165;28;20051;-52
2023/05/10 05:02:00;;;;;;;14.77;11.23;;;13.90;96.00;;;;;;5066556;28;20311;-58
2023/05/10 05:04:27;;;;;;;17.08;10.60;;;13.90;96.00;;;;;;5055225;28;20104;-58
2023/05/10 05:06:53;;;;;;;13.30;9.73;;;13.90;96.00;;;;;;5037639;28;20037;-57
2023/05/10 05:09:20;;;;;;;14.00;10.50;;;13.90;96.00;;;;;;5043602;28;20040;-57
2023/05/10 05:11:46;;;;;;;18.23;11.13;;;13.90;96.00;;;;;;5074725;28;20052;-59
2023/05/10 05:14:12;;;;;;;14.05;9.85;;;13.90;96.00;;;;;;5074998;28;20036;-56
2023/05/10 05:16:39;;;;;;;14.57;10.93;;;13.90;96.10;;;;;;5056109;28;20085;-51
2023/05/10 05:19:06;;;;;;;15.30;11.35;;;13.90;96.00;;;;;;5075551;28;20020;-56
2023/05/10 05:21:33;;;;;;;16.27;12.82;;;13.90;96.00;;;;;;5074891;28;20418;-59
2023/05/10 05:23:59;;;;;;;21.92;13.52;;;13.90;96.00;;;;;;5064724;28;20025;-56
2023/05/10 05:26:26;;;;;;;15.90;12.10;;;13.90;96.00;;;;;;5054759;28;20025;-48
2023/05/10 05:28:54;;;;;;;16.77;11.25;;;13.80;96.00;;;;;;5054510;28;20370;-55
2023/05/10 05:31:21;;;;;;;17.52;12.45;;;13.90;96.00;;;;;;5074753;28;20345;-50
2023/05/10 05:33:47;;;;;;;14.80;11.20;;;13.90;96.00;;;;;;5073856;28;20043;-51
2023/05/10 05:36:13;;;;;;;17.25;10.73;;;13.80;96.00;;;;;;5054469;28;20025;-53
2023/05/10 05:38:40;;;;;;;12.30;9.93;;;13.80;95.90;;;;;;5054766;28;20028;-51
2023/05/10 05:41:07;;;;;;;14.52;10.43;;;13.70;95.90;;;;;;5054386;28;20096;-53
2023/05/10 05:43:34;;;;;;;11.90;9.38;;;13.70;95.90;;;;;;5050006;28;20028;-57
2023/05/10 05:46:03;;;;;;;12.05;8.88;;;13.70;95.80;;;;;;5049501;28;20033;-55
2023/05/10 05:48:33;;;;;;;10.98;7.28;;;13.70;95.90;;;;;;5054458;28;20033;-54
2023/05/10 05:51:00;;;;;;;10.45;8.43;;;13.70;95.90;;;;;;5054221;28;20033;-59
2023/05/10 05:53:26;;;;;;;11.85;9.70;;;13.60;95.80;;;;;;5054418;28;20025;-57
2023/05/10 05:55:58;;;;;;;10.90;8.57;;;13.60;95.80;;;;;;5054326;28;20021;-58
2023/05/10 05:58:27;;;;;;;11.02;9.25;;;13.60;95.90;;;;;;5067948;28;20036;-57
2023/05/10 06:00:54;;;;;;;10.68;8.40;;;13.60;95.80;;;;;;5073980;28;20033;-55
2023/05/10 06:03:22;;;;;;;10.32;8.52;;;13.60;95.80;;;;;;5074100;28;20089;-55
2023/05/10 06:05:49;;;;;;;11.68;8.73;;;13.60;95.70;;;;;;5074135;28;20108;-53
2023/05/10 06:08:15;;;;;;;11.85;9.35;;;13.60;95.80;;;;;;5054423;28;20071;-55
2023/05/10 06:10:42;;;;;;;10.30;9.13;;;13.50;95.70;;;;;;5052530;28;20045;-53
2023/05/10 06:13:09;;;;;;;10.68;9.38;;;13.60;95.80;;;;;;5053679;28;20112;-56
2023/05/10 06:15:35;;;;;;;11.93;9.43;;;13.60;95.70;;;;;;5053965;28;20025;-55
2023/05/10 06:18:02;;;;;;;12.95;9.02;;;13.60;95.80;;;;;;5053644;28;20082;-57
2023/05/10 06:20:31;;;;;;;8.25;7.05;;;13.60;95.80;;;;;;5053394;28;20037;-54
2023/05/10 06:22:58;;;;;;;9.25;8.23;;;13.70;95.70;;;;;;5053215;28;20039;-50
2023/05/10 06:25:27;;;;;;;10.23;8.32;;;13.70;95.70;;;;;;5035605;28;20029;-49
2023/05/10 06:27:57;;;;;;;7.82;6.90;;;13.70;95.60;;;;;;5053247;28;20029;-51
2023/05/10 06:30:27;;;;;;;;;;;13.80;95.70;;;;;;5053802;28;20390;-48
2023/05/10 06:32:54;;;;;;;10.45;8.90;;;13.80;95.60;;;;;;5035930;28;19915;-48
2023/05/10 06:35:21;;;;;;;12.18;9.25;;;13.90;95.50;;;;;;5052926;28;20041;-49
2023/05/10 06:37:48;;;;;;;9.45;8.45;;;13.90;95.50;;;;;;5053541;28;20036;-48
2023/05/10 06:40:15;;;;;;;9.23;8.20;;;13.90;95.40;;;;;;5035489;28;20017;-48
2023/05/10 06:42:45;;;;;;;8.60;7.50;;;13.80;95.30;;;;;;5053180;28;20044;-46
2023/05/10 06:45:15;;;;;;;13.35;9.38;;;13.80;95.20;;;;;;5053206;28;20357;-46
2023/05/10 06:47:42;;;;;;;10.13;8.90;;;13.80;95.20;;;;;;5035279;28;20029;-46
2023/05/10 06:50:11;;;;;;;8.90;7.90;;;13.90;95.20;;;;;;5053323;28;20052;-46
2023/05/10 06:52:38;;;;;;;8.13;7.30;;;13.90;95.10;;;;;;5035810;28;20029;-46
2023/05/10 06:55:06;;;;;;;9.02;8.13;;;13.90;95.20;;;;;;5053395;28;20406;-46
2023/05/10 06:57:37;;;;;;;8.50;7.60;;;14.10;95.20;;;;;;5035426;28;20020;-47
2023/05/10 07:00:05;;;;;;;9.32;8.40;;;14.20;95.20;;;;;;5053101;28;20083;-46
2023/05/10 07:02:32;;;;;;;11.93;8.63;;;14.20;95.00;;;;;;5052549;28;20033;-47
2023/05/10 07:04:59;;;;;;;9.88;8.88;;;14.20;94.90;;;;;;5035705;28;20146;-47
2023/05/10 07:07:25;;;;;;;8.80;7.90;;;14.30;95.00;;;;;;5066128;28;20047;-47
2023/05/10 07:09:51;;;;;;;8.60;7.80;;;14.40;94.80;;;;;;5055256;28;20035;-47
2023/05/10 07:12:20;;;;;;;7.80;7.00;;;14.40;94.70;;;;;;5073013;28;20017;-47
2023/05/10 07:14:47;;;;;;;9.43;8.27;;;14.40;94.70;;;;;;5055733;28;20032;-48
2023/05/10 07:17:14;;;;;;;7.20;6.50;;;14.60;94.70;;;;;;5052910;28;20028;-47
2023/05/10 07:19:41;;;;;;;8.13;7.30;;;14.60;94.60;;;;;;5052783;28;20063;-47
2023/05/10 07:22:11;;;;;;;8.35;6.78;;;14.70;94.50;;;;;;5052703;28;20040;-46
2023/05/10 07:24:42;;;;;;;7.13;6.43;;;14.90;94.50;;;;;;5053002;28;20025;-46
2023/05/10 07:27:09;;;;;;;6.03;5.43;;;14.80;94.20;;;;;;5052322;28;20040;-45
2023/05/10 07:29:36;;;;;;;5.28;4.78;;;14.90;94.00;;;;;;5052327;28;20032;-45
2023/05/10 07:32:03;;;;;;;5.90;4.70;;;14.80;93.70;;;;;;5052310;28;20025;-44
2023/05/10 07:34:30;;;;;;;4.40;3.67;;;14.80;93.60;;;;;;5052039;28;20029;-43
2023/05/10 07:36:58;;;;;;;4.82;4.00;;;14.80;93.60;;;;;;5056704;28;20017;-43
2023/05/10 07:39:26;;;;;;;5.10;4.47;;;14.70;93.00;;;;;;5071949;28;20109;-42
2023/05/10 07:41:53;;;;;;;4.32;3.38;;;14.70;93.00;;;;;;5071749;28;20585;-44
2023/05/10 07:44:20;;;;;;;5.82;4.80;;;14.60;92.70;;;;;;5039490;28;20120;-42
2023/05/10 07:46:48;;;;;;;5.55;4.78;;;14.50;92.70;;;;;;5054582;28;20025;-43
2023/05/10 07:49:15;;;;;;;6.28;4.80;;;14.30;92.50;;;;;;5055952;28;20512;-43
2023/05/10 07:51:42;;;;;;;5.82;5.05;;;14.20;92.70;;;;;;5075118;28;20037;-44
2023/05/10 07:54:09;;;;;;;7.05;4.82;;;14.10;92.60;;;;;;5076636;28;20377;-45
2023/05/10 07:56:39;;;;;;;5.75;4.97;;;14.20;92.90;;;;;;5061097;28;20028;-46
2023/05/10 07:59:06;;;;;;;6.15;5.50;;;14.20;93.00;;;;;;5056444;28;20025;-48
2023/05/10 08:01:34;;;;;;;7.28;6.18;;;14.20;93.20;;;;;;5056677;28;20063;-47
2023/05/10 08:04:00;;;;;;;5.82;5.22;;;14.20;93.20;;;;;;5056018;28;20112;-49
2023/05/10 08:06:28;;;;;;;5.95;5.28;;;14.20;93.20;;;;;;5055952;28;20170;-50
2023/05/10 08:08:55;;;;;;;6.85;6.15;;;14.10;93.10;;;;;;5056493;28;20029;-49
2023/05/10 08:11:25;;;;;;;7.07;6.25;;;14.10;93.00;;;;;;5056330;28;20049;-49
2023/05/10 08:13:52;;;;;;;7.10;6.03;;;14.00;92.90;;;;;;5076172;28;20028;-51
2023/05/10 08:16:19;;;;;;;7.28;6.43;;;14.00;93.10;;;;;;5071444;28;20017;-50
2023/05/10 08:18:46;;;;;;;6.72;5.90;;;14.00;93.10;;;;;;5056306;28;20025;-53
2023/05/10 08:21:15;;;;;;;8.57;7.68;;;14.00;93.20;;;;;;5056042;28;20032;-51
2023/05/10 08:23:43;;;;;;;10.02;7.05;;;14.10;93.40;;;;;;5070881;28;20016;-49
2023/05/10 08:26:09;;;;;;;6.95;6.25;;;14.20;93.60;;;;;;5074367;28;20043;-49
2023/05/10 08:28:36;;;;;;;8.52;7.60;;;14.20;93.50;;;;;;5055888;28;20438;-48
2023/05/10 08:31:02;;;;;;;7.68;6.90;;;14.30;93.30;;;;;;5055807;28;20083;-49
2023/05/10 08:33:29;;;;;;;9.88;8.27;;;14.40;93.40;;;;;;5038069;28;20021;-49
2023/05/10 08:35:55;;;;;;;8.00;7.20;;;14.40;93.20;;;;;;5075641;28;20029;-48
2023/05/10 08:38:21;;;;;;;7.82;6.95;;;14.40;93.00;;;;;;5062244;28;20095;-50
2023/05/10 08:40:50;;;;;;;8.88;7.97;;;14.50;92.80;;;;;;5055462;28;20063;-48
2023/05/10 08:43:17;;;;;;;7.17;6.47;;;14.50;92.70;;;;;;5055383;28;20017;-48
2023/05/10 08:45:47;;;;;;;8.23;6.93;;;14.50;92.80;;;;;;5055548;28;20040;-49
2023/05/10 08:48:15;;;;;;;7.78;6.63;;;14.50;92.70;;;;;;5055668;28;20075;-48
2023/05/10 08:50:42;;;;;;;8.90;8.00;;;14.50;92.80;;;;;;5055326;28;20033;-47
2023/05/10 08:53:14;;;;;;;10.05;7.60;;;14.40;92.80;;;;;;5038017;28;20021;-48
2023/05/10 08:55:44;;;;;;;8.63;7.72;;;14.50;92.90;;;;;;5037815;28;20320;-47
2023/05/10 08:58:11;;;;;;;10.30;9.30;;;14.50;92.70;;;;;;5054700;28;20079;-47
2023/05/10 09:00:38;;;;;;;11.80;10.63;;;14.40;92.50;;;;;;5055250;28;20052;-47
2023/05/10 09:03:06;;;;;;;10.68;9.57;;;14.40;92.40;;;;;;5055427;28;20100;-46
2023/05/10 09:05:35;;;;;;;10.57;9.57;;;14.50;92.50;;;;;;5055219;28;20025;-45
2023/05/10 09:08:02;;;;;;;;;;;14.50;92.80;;;;;;5037973;28;20112;-44
2023/05/10 09:10:29;;;;;;;10.68;9.73;;;14.70;92.90;;;;;;5054894;28;19916;-45
2023/05/10 09:12:59;;;;;;;10.52;8.52;;;14.90;92.70;;;;;;5053936;28;20068;-44
2023/05/10 09:15:26;;;;;;;;;;;15.10;92.60;;;;;;5055485;28;20401;-44
2023/05/10 09:17:59;;;;;;;9.45;8.55;;;15.30;92.30;;;;;;5054742;28;19920;-43
2023/05/10 09:20:26;;;;;;;7.50;6.40;;;15.20;91.80;;;;;;5062913;28;20079;-45
2023/05/10 09:22:52;;;;;;;7.53;6.82;;;15.20;91.50;;;;;;5057158;28;20039;-45
2023/05/10 09:25:19;;;;;;;6.70;6.10;;;15.20;91.40;;;;;;5069172;28;20025;-46
2023/05/10 09:27:47;;;;;;;8.13;7.32;;;15.10;91.10;;;;;;5054811;28;20028;-47
2023/05/10 09:30:28;;;;;;;8.43;7.63;;;15.10;90.90;;;;;;5054426;28;20067;-49
2023/05/10 09:32:57;;;;;;;8.18;7.25;;;15.00;91.10;;;;;;5037520;28;20065;-49
2023/05/10 09:35:28;;;;;;;9.95;7.50;;;14.90;91.20;;;;;;5037130;28;20416;-52
2023/05/10 09:37:55;;;;;;;9.40;8.55;;;14.80;91.40;;;;;;5036898;28;20064;-49
2023/05/10 09:40:24;;;;;;;8.82;7.55;;;14.80;91.60;;;;;;5054549;28;20025;-48
2023/05/10 09:43:08;;;;;;;9.80;8.80;;;14.90;91.90;;;;;;5054362;28;20033;-47
2023/05/10 09:45:37;;;;;;;10.15;8.43;;;15.20;92.00;;;;;;5054549;28;20017;-49
2023/05/10 09:48:06;;;;;;;9.35;8.55;;;15.40;91.70;;;;;;5059636;28;20461;-48
2023/05/10 09:50:33;;;;;;;9.60;8.70;;;15.30;91.30;;;;;;5074102;28;20428;-48
2023/05/10 09:53:03;;;;;;;10.85;9.73;;;15.40;91.20;;;;;;5074155;28;20267;-50
2023/05/10 09:55:50;;;;;;;8.40;7.53;;;15.40;91.20;;;;;;5061056;28;20029;-49
2023/05/10 09:58:16;;;;;;;8.05;7.25;;;15.80;91.30;;;;;;5053920;28;20052;-49
2023/05/10 10:00:51;;;;;;;9.48;8.50;;;15.90;90.90;;;;;;5054003;28;20021;-49
2023/05/10 10:03:20;;;;;;;9.18;8.05;;;16.00;90.10;;;;;;5056142;28;20397;-50
2023/05/10 10:05:48;;;;;;;8.17;7.37;;;16.10;89.70;;;;;;5056404;28;20035;-49
2023/05/10 10:08:17;;;;;;;7.18;6.47;;;16.30;90.30;;;;;;5069430;28;20366;-47
2023/05/10 10:10:48;;;;;;;6.85;6.15;;;16.50;90.60;;;;;;5052876;28;20048;-45
2023/05/10 10:13:17;;;;;;;5.75;5.15;;;16.80;89.80;;;;;;5054004;28;20106;-48
2023/05/10 10:15:44;;;;;;;6.38;4.72;;;17.00;89.10;;;;;;5053714;28;20036;-45
2023/05/10 10:18:14;;;;;;;6.22;5.40;;;17.10;87.30;;;;;;5053761;28;20078;-45
2023/05/10 10:20:41;;;;;;;4.93;4.40;;;17.10;87.10;;;;;;5052665;28;20095;-44
2023/05/10 10:23:09;;;;;;;3.83;3.15;;;17.00;87.10;;;;;;5053713;28;20095;-50
2023/05/10 10:25:40;;;;;;;4.55;3.80;;;17.00;86.70;;;;;;5053670;28;20021;-44
2023/05/10 10:28:38;;;;;;;5.63;3.78;;;16.80;86.00;;;;;;5057937;28;20103;-46
2023/05/10 10:31:27;;;;;;;3.97;3.58;;;16.50;86.60;;;;;;5073484;28;20024;-45
2023/05/10 10:34:28;;;;;;;5.25;4.32;;;16.30;87.00;;;;;;5043011;28;20469;-44
2023/05/10 10:37:04;;;;;;;5.13;4.25;;;16.00;88.20;;;;;;5053314;28;20044;-45
2023/05/10 10:39:31;;;;;;;4.95;4.40;;;15.90;88.00;;;;;;5053225;28;20029;-45
2023/05/10 10:41:58;;;;;;;3.95;3.40;;;15.90;88.60;;;;;;5053540;28;20033;-45
2023/05/10 10:44:37;;;;;;;5.60;5.00;;;15.80;88.70;;;;;;5053219;28;20057;-45
2023/05/10 10:47:14;;;;;;;4.78;3.63;;;15.70;88.80;;;;;;5053012;28;20029;-45
2023/05/10 10:49:51;;;;;;;4.22;3.83;;;15.70;89.10;;;;;;5053132;28;20343;-45
2023/05/10 10:52:36;;;;;;;5.00;4.13;;;15.60;89.10;;;;;;5053368;28;20312;-45
2023/05/10 10:55:19;;;;;;;6.95;6.05;;;15.60;89.60;;;;;;5053260;28;20029;-44
2023/05/10 10:58:04;;;;;;;6.70;5.13;;;15.60;90.10;;;;;;5052927;28;20463;-45
2023/05/10 11:00:40;;;;;;;5.00;4.50;;;15.70;90.20;;;;;;5052952;28;20462;-44
2023/05/10 11:03:25;;;;;;;5.03;4.07;;;15.80;90.00;;;;;;5052962;28;20049;-45
2023/05/10 11:05:59;;;;;;;4.72;3.80;;;15.70;89.60;;;;;;5053178;28;20017;-45
2023/05/10 11:08:34;;;;;;;4.90;4.10;;;15.70;89.90;;;;;;5053072;28;20107;-46
2023/05/10 11:11:00;;;;;;;15.30;4.43;;;15.80;89.80;;;;;;5035169;28;20057;-45
2023/05/10 11:13:39;;;;;;;4.63;4.00;;;15.80;89.80;;;;;;5052898;28;20025;-44
2023/05/10 11:16:18;;;;;;;6.70;5.50;;;15.80;89.20;;;;;;5052856;28;20055;-45
2023/05/10 11:19:07;;;;;;;9.30;5.60;;;15.10;89.20;;;;;;5052964;28;20259;-46
2023/05/10 11:21:45;;;;;;;8.57;6.55;;;14.70;90.00;;;;;;5057286;28;20076;-45
2023/05/10 11:24:20;;;;;;;8.77;6.47;;;14.40;90.90;;;;;;5059434;28;20033;-45
2023/05/10 11:26:50;;;;;;;5.90;4.43;;;14.30;91.60;;;;;;5059640;28;20430;-45
2023/05/10 11:29:17;;;;;;;6.65;4.70;;;14.30;92.00;;;;;;5059526;28;20097;-45
2023/05/10 11:31:49;;;;;;;6.80;4.25;;;14.00;91.90;;;;;;5041969;28;20029;-45
2023/05/10 11:34:49;;;;;;;5.85;4.38;;;13.90;92.20;;;;;;5058301;28;20075;-44
2023/05/10 11:37:18;;;;;;;5.45;3.92;;;13.70;92.40;;;;;;5051984;28;20036;-62
2023/05/10 11:39:47;;;;;;;4.63;3.35;;;13.70;93.00;;;;;;5079257;28;20029;-62
2023/05/10 11:42:14;;;;;;;5.15;3.70;;;13.70;92.80;;;;;;5079300;28;20021;-60
2023/05/10 11:44:44;;;;;;;5.70;3.30;;;13.60;93.00;;;;;;5079282;28;20029;-61
2023/05/10 11:47:12;;;;;;;4.65;3.65;;;13.50;93.10;;;;;;5078451;28;20043;-60
2023/05/10 11:49:37;;;;;;;6.47;3.15;;;13.60;93.50;;;;;;5059019;28;20052;-59
2023/05/10 11:52:08;;;;;;;5.35;3.38;;;13.60;93.60;;;;;;5059046;28;20033;-57
2023/05/10 11:54:44;;;;;;;3.30;2.00;;;13.60;93.60;;;;;;5059675;28;20033;-56
2023/05/10 11:57:13;;;;;;;3.80;2.38;;;13.50;93.50;;;;;;5059004;28;20025;-56
2023/05/10 11:59:40;;;;;;;3.73;2.33;;;13.40;93.70;;;;;;5059027;28;20029;-59
2023/05/10 12:02:07;;;;;;;4.18;3.00;;;13.50;93.90;;;;;;5059103;28;20282;-58
2023/05/10 12:04:37;;;;;;;6.50;3.08;;;13.50;93.80;;;;;;5059037;28;20070;-58
2023/05/10 12:07:04;;;;;;;3.05;1.90;;;13.60;93.80;;;;;;5078180;28;20032;-54
2023/05/10 12:09:31;;;;;;;2.78;1.55;;;13.50;93.60;;;;;;5079095;28;20374;-58
2023/05/10 12:11:58;;;;;;;4.78;1.60;;;13.50;93.50;;;;;;5079055;28;20458;-56
2023/05/10 12:14:28;;;;;;;1.70;0.95;;;13.50;93.50;;;;;;5063279;28;20039;-57
2023/05/10 12:16:56;;;;;;;1.30;0.80;;;13.60;93.60;;;;;;5059050;28;20029;-58
2023/05/10 12:19:23;;;;;;;1.98;1.13;;;13.70;93.50;;;;;;5059069;28;20017;-59
2023/05/10 12:21:50;;;;;;;0.95;0.60;;;13.80;93.40;;;;;;5059145;28;20033;-53
2023/05/10 12:24:17;;;;;;;1.65;0.93;;;13.90;93.30;;;;;;5059032;28;20020;-51
2023/05/10 12:26:48;;;;;;;1.38;0.80;;;14.20;93.40;;;;;;5059266;28;20052;-49
2023/05/10 12:29:19;;;;;;;1.35;0.75;;;14.20;92.90;;;;;;5058784;28;20430;-53
2023/05/10 12:31:56;;;;;;;1.38;0.75;;;14.10;92.10;;;;;;5058049;28;20112;-55
2023/05/10 12:34:35;;;;;;;1.45;0.88;;;14.00;92.30;;;;;;5075021;28;20039;-49
2023/05/10 12:37:05;;;;;;;;;;;14.10;92.50;;;;;;5076264;28;20028;-49
2023/05/10 12:39:40;;;;;;;0.95;0.70;;;14.00;92.10;;;;;;5058087;28;19912;-49
2023/05/10 12:42:07;;;;;;;3.67;1.05;;;13.90;92.30;;;;;;5055807;28;20032;-48
2023/05/10 12:44:34;;;;;;;1.77;0.80;;;13.70;92.10;;;;;;5055363;28;20105;-48
2023/05/10 12:47:01;;;;;;;1.85;1.02;;;13.60;92.60;;;;;;5055550;28;20043;-48
2023/05/10 12:49:26;;;;;;;1.98;1.17;;;13.60;92.90;;;;;;5055022;28;20374;-51
2023/05/10 12:51:54;;;;;;;2.45;1.48;;;13.60;93.10;;;;;;5054940;28;20037;-48
2023/05/10 12:54:21;;;;;;;3.70;2.47;;;13.50;92.70;;;;;;5054835;28;20332;-48